West Carrollton, Ohio
Current Conditions -  °F | °C
As of 9:04 PM on Thursday 18 Dec 2014 (Local Time) from KMGY Reporting Station
Overcast Overcast  
Wind Chill: -5°   Ceiling: 2600
Heat Index: -2°   Visibility: 10mi
Dew Point: -6°   Wind: 5mph
Humidity: 75%   Direction: 300°WNW
Pressure: 30.21"   Gusts: NA
Location:  39.664°N, 84.2415°W
Report Text: KMGY 190204Z AUTO 30004KT 10SM BKN026 OVC070 M02/M06 A3021 RMK AO2 T10221061
Loading
Personal Weather Stations






























Interactive Weather Map New forecast layout! Learn more

10-Day Weather Forecast

Advertisements
Track Severe Weather on mobile